logo
Rechercher aéroport 
image banner adimage banner adimage banner ad
image banner ad

BIHN - Hofn Hornafirdi

Situé à Hofn, Iceland

ICAO - BIHN, IATA - HFN

Données fournies par Airmate  

Information générale

Coordonnées: N64°17'44" W15°13'38"
Élévation : 24 feet MSL.
 
Voir autres Aéroports à East

Données opérationnelles

Special qualification required
Heure actuelle UTC:
Heure actuelle locale:
Météo
TAF: TAF BIHN 221629Z 2217/2220 22020KT 9999 SCT040
Voir NOTAMs / SUP AIP / TFR affectant cet aéroport [VIEW]
Fréquences de communication: [VIEW]

Pistes:

Identifiant RWYQFULongueur (ft)Largeur (ft)SurfaceLDA (ft)
18167°492198GRAVE
36347°492198GRAVE

Coordonnées de l'aéroport

Adresse: Hofn Iceland

Vue satellite de BIHN